AMV315 LZBD-LZLU
Flight info
| Callsign | AMV315 |
|---|---|
| Flight time | N/A |
| Altitude | 7000 |
| Route | LZKZE DCT KSC DCT LZKZW DCT ETNIK |
| Aircraft | C208/L-SDFGR/C |
Departure
| Time | N/A |
|---|---|
| Airport | LZBD |
Arrival
| Time | 2026-05-04 11:05 |
|---|---|
| Airport | Lučenec Airfield (LZLU) |
| Time | Latitude | Longitude | Altitude | Speed | Heading |
|---|---|---|---|---|---|
| 2026-05-04 10:12 | 48.74449 | 21.44749 | 978 ft | 0 kts | 358° |
| 2026-05-04 10:25 | 48.74380 | 21.44802 | 981 ft | 13 kts | 166° |
| 2026-05-04 10:25 | 48.74274 | 21.44839 | 986 ft | 14 kts | 167° |
| 2026-05-04 10:25 | 48.74216 | 21.44862 | 977 ft | 5 kts | 164° |
| 2026-05-04 10:25 | 48.74189 | 21.44874 | 979 ft | 7 kts | 162° |
| 2026-05-04 10:26 | 48.74144 | 21.44897 | 985 ft | 2 kts | 130° |
| 2026-05-04 10:26 | 48.74156 | 21.44920 | 979 ft | 3 kts | 351° |
| 2026-05-04 10:26 | 48.74159 | 21.44919 | 978 ft | 0 kts | 349° |
| 2026-05-04 10:27 | 48.74353 | 21.44843 | 985 ft | 57 kts | 346° |
| 2026-05-04 10:28 | 48.74869 | 21.44640 | 1055 ft | 87 kts | 338° |
| 2026-05-04 10:28 | 48.75458 | 21.44336 | 1289 ft | 92 kts | 338° |
| 2026-05-04 10:28 | 48.76094 | 21.44012 | 1531 ft | 99 kts | 335° |
| 2026-05-04 10:28 | 48.76755 | 21.43692 | 1769 ft | 104 kts | 352° |
| 2026-05-04 10:29 | 48.77381 | 21.44284 | 1986 ft | 121 kts | 68° |
| 2026-05-04 10:29 | 48.77277 | 21.45485 | 2234 ft | 120 kts | 135° |
| 2026-05-04 10:29 | 48.76544 | 21.45924 | 2504 ft | 117 kts | 179° |
| 2026-05-04 10:29 | 48.75700 | 21.45916 | 2773 ft | 124 kts | 193° |
| 2026-05-04 10:30 | 48.74939 | 21.45342 | 3047 ft | 123 kts | 207° |
| 2026-05-04 10:30 | 48.74095 | 21.45034 | 3312 ft | 129 kts | 183° |
| 2026-05-04 10:30 | 48.73175 | 21.45172 | 3566 ft | 136 kts | 177° |
| 2026-05-04 10:30 | 48.72230 | 21.45355 | 3821 ft | 138 kts | 177° |
| 2026-05-04 10:31 | 48.71290 | 21.45566 | 4079 ft | 136 kts | 175° |
| 2026-05-04 10:31 | 48.70361 | 21.45782 | 4327 ft | 134 kts | 177° |
| 2026-05-04 10:32 | 48.68348 | 21.38929 | 5002 ft | 155 kts | 266° |
| 2026-05-04 10:33 | 48.68344 | 21.37296 | 5011 ft | 158 kts | 267° |
| 2026-05-04 10:33 | 48.68344 | 21.35634 | 5018 ft | 159 kts | 266° |
| 2026-05-04 10:33 | 48.68338 | 21.34496 | 5004 ft | 159 kts | 266° |
| 2026-05-04 10:33 | 48.68321 | 21.32829 | 5004 ft | 159 kts | 264° |
| 2026-05-04 10:34 | 48.68314 | 21.31161 | 5002 ft | 157 kts | 266° |
| 2026-05-04 10:34 | 48.68324 | 21.29501 | 4995 ft | 157 kts | 266° |
| 2026-05-04 10:34 | 48.68307 | 21.27871 | 4995 ft | 157 kts | 266° |
| 2026-05-04 10:34 | 48.68306 | 21.26203 | 5005 ft | 157 kts | 266° |
| 2026-05-04 10:35 | 48.68233 | 21.24566 | 5001 ft | 155 kts | 252° |
| 2026-05-04 10:35 | 48.67808 | 21.23078 | 5000 ft | 154 kts | 244° |
| 2026-05-04 10:35 | 48.67382 | 21.21585 | 4996 ft | 153 kts | 245° |
| 2026-05-04 10:35 | 48.66971 | 21.20116 | 5003 ft | 151 kts | 246° |
| 2026-05-04 10:36 | 48.66553 | 21.18670 | 4998 ft | 154 kts | 245° |
| 2026-05-04 10:36 | 48.66134 | 21.17188 | 5008 ft | 153 kts | 246° |
| 2026-05-04 10:36 | 48.65711 | 21.15684 | 5004 ft | 156 kts | 246° |
| 2026-05-04 10:36 | 48.65277 | 21.14177 | 5007 ft | 157 kts | 245° |
| 2026-05-04 10:37 | 48.64850 | 21.12677 | 4999 ft | 154 kts | 245° |
| 2026-05-04 10:37 | 48.64425 | 21.11200 | 5008 ft | 152 kts | 245° |
| 2026-05-04 10:37 | 48.63999 | 21.09714 | 5002 ft | 154 kts | 246° |
| 2026-05-04 10:37 | 48.63574 | 21.08218 | 5001 ft | 155 kts | 246° |
| 2026-05-04 10:39 | 48.61112 | 20.99304 | 4996 ft | 153 kts | 255° |
| 2026-05-04 10:39 | 48.60896 | 20.97713 | 5004 ft | 156 kts | 256° |
| 2026-05-04 10:39 | 48.60668 | 20.96103 | 4994 ft | 157 kts | 257° |
| 2026-05-04 10:40 | 48.60440 | 20.94499 | 4996 ft | 155 kts | 255° |
| 2026-05-04 10:40 | 48.60199 | 20.92913 | 4998 ft | 154 kts | 255° |
| 2026-05-04 10:40 | 48.59969 | 20.91335 | 4994 ft | 153 kts | 256° |
| 2026-05-04 10:40 | 48.59743 | 20.89765 | 4997 ft | 152 kts | 255° |
| 2026-05-04 10:41 | 48.59512 | 20.88201 | 4997 ft | 153 kts | 255° |
| 2026-05-04 10:41 | 48.59278 | 20.86622 | 4999 ft | 155 kts | 255° |
| 2026-05-04 10:41 | 48.59048 | 20.85028 | 4999 ft | 156 kts | 256° |
| 2026-05-04 10:41 | 48.58818 | 20.83436 | 4999 ft | 155 kts | 255° |
| 2026-05-04 10:42 | 48.58577 | 20.81847 | 5001 ft | 155 kts | 255° |
| 2026-05-04 10:42 | 48.58344 | 20.80263 | 5007 ft | 154 kts | 255° |
| 2026-05-04 10:42 | 48.58113 | 20.78688 | 4995 ft | 152 kts | 255° |
| 2026-05-04 10:42 | 48.57891 | 20.77148 | 4995 ft | 147 kts | 256° |
| 2026-05-04 10:43 | 48.57669 | 20.75635 | 4995 ft | 148 kts | 255° |
| 2026-05-04 10:44 | 48.55182 | 20.65361 | 5003 ft | 152 kts | 243° |
| 2026-05-04 10:45 | 48.54714 | 20.63929 | 4992 ft | 152 kts | 244° |
| 2026-05-04 10:45 | 48.54256 | 20.62496 | 4992 ft | 151 kts | 243° |
| 2026-05-04 10:45 | 48.53807 | 20.61077 | 5004 ft | 149 kts | 244° |
| 2026-05-04 10:45 | 48.53336 | 20.59658 | 4996 ft | 154 kts | 242° |
| 2026-05-04 10:46 | 48.52857 | 20.58211 | 4996 ft | 154 kts | 243° |
| 2026-05-04 10:46 | 48.52377 | 20.56739 | 4987 ft | 157 kts | 243° |
| 2026-05-04 10:46 | 48.51908 | 20.55273 | 5002 ft | 155 kts | 243° |
| 2026-05-04 10:46 | 48.51437 | 20.53813 | 4990 ft | 154 kts | 244° |
| 2026-05-04 10:47 | 48.50967 | 20.52368 | 4998 ft | 154 kts | 242° |
| 2026-05-04 10:47 | 48.50493 | 20.50927 | 4996 ft | 153 kts | 243° |
| 2026-05-04 10:47 | 48.50029 | 20.49491 | 4994 ft | 152 kts | 242° |
| 2026-05-04 10:47 | 48.49561 | 20.48063 | 5003 ft | 154 kts | 244° |
| 2026-05-04 10:49 | 48.46266 | 20.37957 | 5007 ft | 156 kts | 244° |
| 2026-05-04 10:49 | 48.45791 | 20.36490 | 5006 ft | 156 kts | 243° |
| 2026-05-04 10:50 | 48.45312 | 20.35026 | 5000 ft | 155 kts | 243° |
| 2026-05-04 10:51 | 48.42005 | 20.24960 | 5014 ft | 151 kts | 242° |
| 2026-05-04 10:52 | 48.41521 | 20.23540 | 5006 ft | 155 kts | 243° |
| 2026-05-04 10:52 | 48.41058 | 20.22066 | 5007 ft | 156 kts | 243° |
| 2026-05-04 10:52 | 48.40584 | 20.20599 | 5009 ft | 156 kts | 242° |
| 2026-05-04 10:54 | 48.37248 | 20.10538 | 4732 ft | 143 kts | 242° |
| 2026-05-04 10:54 | 48.36816 | 20.09217 | 4548 ft | 138 kts | 241° |
| 2026-05-04 10:56 | 48.33644 | 19.99645 | 3360 ft | 151 kts | 240° |
| 2026-05-04 10:56 | 48.33168 | 19.98220 | 3167 ft | 155 kts | 244° |
| 2026-05-04 10:56 | 48.32764 | 19.96788 | 3002 ft | 146 kts | 238° |
| 2026-05-04 10:57 | 48.32248 | 19.95488 | 2859 ft | 144 kts | 238° |
| 2026-05-04 10:57 | 48.31794 | 19.94139 | 2804 ft | 144 kts | 242° |
| 2026-05-04 10:57 | 48.31349 | 19.92754 | 2820 ft | 150 kts | 242° |
| 2026-05-04 10:57 | 48.30873 | 19.91316 | 2837 ft | 157 kts | 241° |
| 2026-05-04 10:58 | 48.30355 | 19.89835 | 2824 ft | 160 kts | 240° |
| 2026-05-04 10:58 | 48.29873 | 19.88298 | 2779 ft | 164 kts | 244° |
| 2026-05-04 10:58 | 48.29377 | 19.86830 | 2812 ft | 146 kts | 241° |
| 2026-05-04 10:58 | 48.28955 | 19.85540 | 2786 ft | 130 kts | 244° |
| 2026-05-04 10:59 | 48.28584 | 19.84398 | 2685 ft | 118 kts | 240° |
| 2026-05-04 10:59 | 48.28424 | 19.83193 | 2509 ft | 124 kts | 274° |
| 2026-05-04 10:59 | 48.28848 | 19.82005 | 2299 ft | 136 kts | 309° |
| 2026-05-04 10:59 | 48.29493 | 19.81005 | 2092 ft | 130 kts | 308° |
| 2026-05-04 11:00 | 48.30069 | 19.80052 | 1845 ft | 119 kts | 306° |
| 2026-05-04 11:01 | 48.33278 | 19.74721 | 859 ft | 74 kts | 305° |
| 2026-05-04 11:02 | 48.33654 | 19.74154 | 772 ft | 78 kts | 302° |
| 2026-05-04 11:02 | 48.34002 | 19.73578 | 713 ft | 63 kts | 310° |
| 2026-05-04 11:05 | 48.33874 | 19.73464 | 712 ft | 0 kts | 298° |